sensor_id;sensor_type;location;lat;lon;timestamp;pressure;altitude;pressure_sealevel;temperature;humidity
57442;BME280;43284;47.042;15.498;2022-10-15T00:01:12;97215.22;;;9.27;98.46
57442;BME280;43284;47.042;15.498;2022-10-15T00:03:41;97213.59;;;9.25;98.62
57442;BME280;43284;47.042;15.498;2022-10-15T00:06:17;97214.47;;;9.24;98.78
57442;BME280;43284;47.042;15.498;2022-10-15T00:08:45;97212.66;;;9.26;99.43
57442;BME280;43284;47.042;15.498;2022-10-15T00:11:20;97209.06;;;9.28;99.88
57442;BME280;43284;47.042;15.498;2022-10-15T00:13:49;97212.50;;;9.29;100.00
57442;BME280;43284;47.042;15.498;2022-10-15T00:16:19;97211.13;;;9.20;98.90
57442;BME280;43284;47.042;15.498;2022-10-15T00:18:49;97213.06;;;9.17;98.63
57442;BME280;43284;47.042;15.498;2022-10-15T00:21:18;97213.44;;;9.07;98.14
57442;BME280;43284;47.042;15.498;2022-10-15T00:23:48;97207.69;;;8.99;97.73
57442;BME280;43284;47.042;15.498;2022-10-15T00:26:18;97211.53;;;8.91;97.10
57442;BME280;43284;47.042;15.498;2022-10-15T00:28:48;97210.16;;;8.82;96.76
57442;BME280;43284;47.042;15.498;2022-10-15T00:31:18;97211.31;;;8.75;96.87
57442;BME280;43284;47.042;15.498;2022-10-15T00:33:48;97212.22;;;8.74;97.25
57442;BME280;43284;47.042;15.498;2022-10-15T00:36:22;97201.00;;;8.72;97.62
57442;BME280;43284;47.042;15.498;2022-10-15T00:38:50;97201.91;;;8.71;97.93
57442;BME280;43284;47.042;15.498;2022-10-15T00:41:28;97201.00;;;8.72;98.02
57442;BME280;43284;47.042;15.498;2022-10-15T00:43:59;97189.69;;;8.73;98.84
57442;BME280;43284;47.042;15.498;2022-10-15T00:46:31;97195.69;;;8.75;98.82
57442;BME280;43284;47.042;15.498;2022-10-15T00:49:19;97186.88;;;8.77;99.05
57442;BME280;43284;47.042;15.498;2022-10-15T00:52:03;97181.78;;;8.74;98.36
57442;BME280;43284;47.042;15.498;2022-10-15T00:57:23;97183.72;;;8.69;98.22
57442;BME280;43284;47.042;15.498;2022-10-15T00:59:55;97181.31;;;8.64;97.19
57442;BME280;43284;47.042;15.498;2022-10-15T01:02:25;97183.31;;;8.58;97.07
57442;BME280;43284;47.042;15.498;2022-10-15T01:04:53;97176.59;;;8.52;97.47
57442;BME280;43284;47.042;15.498;2022-10-15T01:07:21;97177.50;;;8.51;97.53
57442;BME280;43284;47.042;15.498;2022-10-15T01:09:49;97182.78;;;8.50;98.01
57442;BME280;43284;47.042;15.498;2022-10-15T01:12:32;97174.84;;;8.53;98.95
57442;BME280;43284;47.042;15.498;2022-10-15T01:17:53;97166.13;;;8.54;98.81
57442;BME280;43284;47.042;15.498;2022-10-15T01:26:09;97156.16;;;8.63;99.80
57442;BME280;43284;47.042;15.498;2022-10-15T01:29:08;97155.19;;;8.66;99.87
57442;BME280;43284;47.042;15.498;2022-10-15T01:31:43;97136.88;;;8.68;99.92
57442;BME280;43284;47.042;15.498;2022-10-15T01:37:18;97142.34;;;8.61;98.18
57442;BME280;43284;47.042;15.498;2022-10-15T01:40:06;97145.13;;;8.57;98.42
57442;BME280;43284;47.042;15.498;2022-10-15T01:42:40;97142.59;;;8.55;98.69
57442;BME280;43284;47.042;15.498;2022-10-15T01:45:18;97145.22;;;8.55;98.93
57442;BME280;43284;47.042;15.498;2022-10-15T01:47:50;97143.44;;;8.56;98.68
57442;BME280;43284;47.042;15.498;2022-10-15T01:50:24;97135.59;;;8.57;99.14
57442;BME280;43284;47.042;15.498;2022-10-15T01:52:56;97139.13;;;8.55;98.97
57442;BME280;43284;47.042;15.498;2022-10-15T01:55:28;97133.91;;;8.55;98.84
57442;BME280;43284;47.042;15.498;2022-10-15T01:57:58;97126.28;;;8.50;98.64
57442;BME280;43284;47.042;15.498;2022-10-15T02:00:26;97129.63;;;8.54;99.39
57442;BME280;43284;47.042;15.498;2022-10-15T02:02:59;97120.84;;;8.56;99.67
57442;BME280;43284;47.042;15.498;2022-10-15T02:05:39;97128.66;;;8.56;99.54
57442;BME280;43284;47.042;15.498;2022-10-15T02:08:24;97136.28;;;8.61;99.96
57442;BME280;43284;47.042;15.498;2022-10-15T02:11:04;97131.22;;;8.58;99.10
57442;BME280;43284;47.042;15.498;2022-10-15T02:19:27;97117.25;;;8.59;99.87
57442;BME280;43284;47.042;15.498;2022-10-15T02:22:14;97100.53;;;8.64;100.00
57442;BME280;43284;47.042;15.498;2022-10-15T02:27:14;97101.13;;;8.71;100.00
57442;BME280;43284;47.042;15.498;2022-10-15T02:29:43;97094.09;;;8.73;100.00
57442;BME280;43284;47.042;15.498;2022-10-15T02:32:14;97097.34;;;8.78;100.00
57442;BME280;43284;47.042;15.498;2022-10-15T02:34:44;97095.47;;;8.82;100.00
57442;BME280;43284;47.042;15.498;2022-10-15T02:37:12;97092.84;;;8.82;100.00
57442;BME280;43284;47.042;15.498;2022-10-15T02:39:41;97093.84;;;8.79;100.00
57442;BME280;43284;47.042;15.498;2022-10-15T02:42:10;97086.84;;;8.80;100.00
57442;BME280;43284;47.042;15.498;2022-10-15T02:44:38;97077.28;;;8.80;100.00
57442;BME280;43284;47.042;15.498;2022-10-15T02:47:06;97083.31;;;8.81;100.00
57442;BME280;43284;47.042;15.498;2022-10-15T02:49:33;97079.03;;;8.80;100.00
57442;BME280;43284;47.042;15.498;2022-10-15T02:52:02;97079.75;;;8.83;100.00
57442;BME280;43284;47.042;15.498;2022-10-15T02:54:30;97076.22;;;8.84;100.00
57442;BME280;43284;47.042;15.498;2022-10-15T02:56:57;97080.41;;;8.89;100.00
57442;BME280;43284;47.042;15.498;2022-10-15T02:59:25;97081.25;;;8.89;100.00
57442;BME280;43284;47.042;15.498;2022-10-15T03:01:52;97080.25;;;8.92;100.00
57442;BME280;43284;47.042;15.498;2022-10-15T03:04:19;97075.25;;;8.87;100.00
57442;BME280;43284;47.042;15.498;2022-10-15T03:06:46;97076.28;;;8.83;100.00
57442;BME280;43284;47.042;15.498;2022-10-15T03:09:13;97069.41;;;8.82;100.00
57442;BME280;43284;47.042;15.498;2022-10-15T03:11:41;97067.63;;;8.82;100.00
57442;BME280;43284;47.042;15.498;2022-10-15T03:14:08;97071.94;;;8.83;100.00
57442;BME280;43284;47.042;15.498;2022-10-15T03:16:36;97064.91;;;8.85;100.00
57442;BME280;43284;47.042;15.498;2022-10-15T03:19:03;97064.50;;;8.95;100.00
57442;BME280;43284;47.042;15.498;2022-10-15T03:21:31;97067.09;;;8.95;100.00
57442;BME280;43284;47.042;15.498;2022-10-15T03:23:58;97065.28;;;8.97;100.00
57442;BME280;43284;47.042;15.498;2022-10-15T03:26:26;97066.97;;;8.98;100.00
57442;BME280;43284;47.042;15.498;2022-10-15T03:28:54;97067.03;;;8.96;100.00
57442;BME280;43284;47.042;15.498;2022-10-15T03:31:21;97060.97;;;8.96;100.00
57442;BME280;43284;47.042;15.498;2022-10-15T03:33:48;97060.13;;;8.95;100.00
57442;BME280;43284;47.042;15.498;2022-10-15T03:36:16;97055.81;;;8.94;100.00
57442;BME280;43284;47.042;15.498;2022-10-15T03:38:43;97059.28;;;8.95;100.00
57442;BME280;43284;47.042;15.498;2022-10-15T03:41:10;97060.13;;;8.95;100.00
57442;BME280;43284;47.042;15.498;2022-10-15T03:43:38;97056.59;;;8.96;100.00
57442;BME280;43284;47.042;15.498;2022-10-15T03:46:05;97059.19;;;8.96;100.00
57442;BME280;43284;47.042;15.498;2022-10-15T03:48:32;97064.28;;;8.99;100.00
57442;BME280;43284;47.042;15.498;2022-10-15T03:50:59;97065.00;;;9.03;100.00
57442;BME280;43284;47.042;15.498;2022-10-15T03:53:27;97063.03;;;9.08;100.00
57442;BME280;43284;47.042;15.498;2022-10-15T03:55:54;97064.09;;;9.04;100.00
57442;BME280;43284;47.042;15.498;2022-10-15T03:58:22;97052.03;;;9.01;100.00
57442;BME280;43284;47.042;15.498;2022-10-15T04:00:50;97056.31;;;9.02;100.00
57442;BME280;43284;47.042;15.498;2022-10-15T04:03:17;97057.25;;;9.01;100.00
57442;BME280;43284;47.042;15.498;2022-10-15T04:05:54;97064.16;;;9.02;100.00
57442;BME280;43284;47.042;15.498;2022-10-15T04:08:23;97060.69;;;9.02;100.00
57442;BME280;43284;47.042;15.498;2022-10-15T04:10:51;97060.50;;;9.06;100.00
57442;BME280;43284;47.042;15.498;2022-10-15T04:13:18;97057.84;;;9.08;100.00
57442;BME280;43284;47.042;15.498;2022-10-15T04:15:46;97061.13;;;9.12;100.00
57442;BME280;43284;47.042;15.498;2022-10-15T04:18:14;97067.06;;;9.15;100.00
57442;BME280;43284;47.042;15.498;2022-10-15T04:20:41;97065.44;;;9.13;100.00
57442;BME280;43284;47.042;15.498;2022-10-15T04:23:09;97067.22;;;9.12;100.00
57442;BME280;43284;47.042;15.498;2022-10-15T04:25:38;97073.28;;;9.13;100.00
57442;BME280;43284;47.042;15.498;2022-10-15T04:28:13;97077.50;;;9.15;100.00
57442;BME280;43284;47.042;15.498;2022-10-15T04:30:40;97075.53;;;9.20;100.00
57442;BME280;43284;47.042;15.498;2022-10-15T04:33:08;97073.69;;;9.22;100.00
57442;BME280;43284;47.042;15.498;2022-10-15T04:35:35;97076.38;;;9.21;100.00
57442;BME280;43284;47.042;15.498;2022-10-15T04:38:03;97078.22;;;9.19;100.00
57442;BME280;43284;47.042;15.498;2022-10-15T04:40:30;97077.44;;;9.17;100.00
57442;BME280;43284;47.042;15.498;2022-10-15T04:42:58;97070.41;;;9.19;100.00
57442;BME280;43284;47.042;15.498;2022-10-15T04:45:25;97067.63;;;9.22;100.00
57442;BME280;43284;47.042;15.498;2022-10-15T04:47:53;97063.06;;;9.27;100.00
57442;BME280;43284;47.042;15.498;2022-10-15T04:50:20;97065.47;;;9.32;100.00
57442;BME280;43284;47.042;15.498;2022-10-15T04:52:48;97062.78;;;9.33;100.00
57442;BME280;43284;47.042;15.498;2022-10-15T04:55:16;97065.31;;;9.35;100.00
57442;BME280;43284;47.042;15.498;2022-10-15T04:57:44;97057.50;;;9.35;100.00
57442;BME280;43284;47.042;15.498;2022-10-15T05:00:12;97062.66;;;9.36;100.00
57442;BME280;43284;47.042;15.498;2022-10-15T05:02:43;97063.22;;;9.43;100.00
57442;BME280;43284;47.042;15.498;2022-10-15T05:05:10;97052.69;;;9.44;100.00
57442;BME280;43284;47.042;15.498;2022-10-15T05:07:38;97056.97;;;9.47;100.00
57442;BME280;43284;47.042;15.498;2022-10-15T05:10:06;97056.97;;;9.47;100.00
57442;BME280;43284;47.042;15.498;2022-10-15T05:12:34;97058.69;;;9.46;100.00
57442;BME280;43284;47.042;15.498;2022-10-15T05:15:01;97050.03;;;9.46;100.00
57442;BME280;43284;47.042;15.498;2022-10-15T05:17:30;97059.63;;;9.45;100.00
57442;BME280;43284;47.042;15.498;2022-10-15T05:19:57;97051.75;;;9.47;100.00
57442;BME280;43284;47.042;15.498;2022-10-15T05:22:25;97049.03;;;9.48;100.00
57442;BME280;43284;47.042;15.498;2022-10-15T05:24:52;97050.75;;;9.49;100.00
57442;BME280;43284;47.042;15.498;2022-10-15T05:27:20;97051.53;;;9.52;100.00
57442;BME280;43284;47.042;15.498;2022-10-15T05:29:48;97050.47;;;9.56;100.00
57442;BME280;43284;47.042;15.498;2022-10-15T05:32:15;97056.53;;;9.56;100.00
57442;BME280;43284;47.042;15.498;2022-10-15T05:34:43;97052.09;;;9.58;100.00
57442;BME280;43284;47.042;15.498;2022-10-15T05:37:10;97051.09;;;9.61;100.00
57442;BME280;43284;47.042;15.498;2022-10-15T05:39:37;97050.16;;;9.62;100.00
57442;BME280;43284;47.042;15.498;2022-10-15T05:42:05;97049.19;;;9.64;100.00
57442;BME280;43284;47.042;15.498;2022-10-15T05:44:35;97049.97;;;9.66;100.00
57442;BME280;43284;47.042;15.498;2022-10-15T05:47:03;97051.59;;;9.69;100.00
57442;BME280;43284;47.042;15.498;2022-10-15T05:49:31;97051.50;;;9.70;100.00
57442;BME280;43284;47.042;15.498;2022-10-15T05:51:58;97053.13;;;9.73;100.00
57442;BME280;43284;47.042;15.498;2022-10-15T05:54:27;97052.97;;;9.76;100.00
57442;BME280;43284;47.042;15.498;2022-10-15T05:56:54;97050.16;;;9.81;100.00
57442;BME280;43284;47.042;15.498;2022-10-15T05:59:22;97052.63;;;9.84;100.00
57442;BME280;43284;47.042;15.498;2022-10-15T06:01:50;97055.09;;;9.87;100.00
57442;BME280;43284;47.042;15.498;2022-10-15T06:04:18;97058.53;;;9.87;100.00
57442;BME280;43284;47.042;15.498;2022-10-15T06:06:45;97064.75;;;9.85;100.00
57442;BME280;43284;47.042;15.498;2022-10-15T06:09:13;97061.22;;;9.86;100.00
57442;BME280;43284;47.042;15.498;2022-10-15T06:11:40;97071.66;;;9.86;100.00
57442;BME280;43284;47.042;15.498;2022-10-15T06:14:08;97062.09;;;9.86;100.00
57442;BME280;43284;47.042;15.498;2022-10-15T06:16:36;97061.16;;;9.87;100.00
57442;BME280;43284;47.042;15.498;2022-10-15T06:19:03;97066.31;;;9.89;100.00
57442;BME280;43284;47.042;15.498;2022-10-15T06:21:32;97067.16;;;9.89;100.00
57442;BME280;43284;47.042;15.498;2022-10-15T06:23:59;97067.91;;;9.92;100.00
57442;BME280;43284;47.042;15.498;2022-10-15T06:26:27;97079.13;;;9.94;100.00
57442;BME280;43284;47.042;15.498;2022-10-15T06:28:55;97072.91;;;9.96;100.00
57442;BME280;43284;47.042;15.498;2022-10-15T06:31:22;97071.84;;;10.00;100.00
57442;BME280;43284;47.042;15.498;2022-10-15T06:33:51;97086.41;;;10.06;100.00
57442;BME280;43284;47.042;15.498;2022-10-15T06:36:18;97088.84;;;10.09;100.00
57442;BME280;43284;47.042;15.498;2022-10-15T06:38:47;97090.34;;;10.15;100.00
57442;BME280;43284;47.042;15.498;2022-10-15T06:41:14;97086.72;;;10.17;100.00
57442;BME280;43284;47.042;15.498;2022-10-15T06:43:42;97093.63;;;10.18;100.00
57442;BME280;43284;47.042;15.498;2022-10-15T06:46:11;97101.47;;;10.18;100.00
57442;BME280;43284;47.042;15.498;2022-10-15T06:48:38;97103.31;;;10.16;100.00
57442;BME280;43284;47.042;15.498;2022-10-15T06:51:06;97104.25;;;10.15;100.00
57442;BME280;43284;47.042;15.498;2022-10-15T06:53:36;97106.69;;;10.18;100.00
57442;BME280;43284;47.042;15.498;2022-10-15T06:56:06;97110.00;;;10.22;100.00
57442;BME280;43284;47.042;15.498;2022-10-15T06:58:34;97106.41;;;10.24;100.00
57442;BME280;43284;47.042;15.498;2022-10-15T07:01:02;97102.84;;;10.25;100.00
57442;BME280;43284;47.042;15.498;2022-10-15T07:03:30;97097.38;;;10.31;100.00
57442;BME280;43284;47.042;15.498;2022-10-15T07:06:03;97092.91;;;10.34;100.00
57442;BME280;43284;47.042;15.498;2022-10-15T07:08:32;97095.41;;;10.37;100.00
57442;BME280;43284;47.042;15.498;2022-10-15T07:11:04;97100.41;;;10.41;100.00
57442;BME280;43284;47.042;15.498;2022-10-15T07:13:31;97104.56;;;10.45;100.00
57442;BME280;43284;47.042;15.498;2022-10-15T07:16:03;97105.34;;;10.47;100.00
57442;BME280;43284;47.042;15.498;2022-10-15T07:18:31;97106.94;;;10.50;100.00
57442;BME280;43284;47.042;15.498;2022-10-15T07:20:58;97116.47;;;10.51;100.00
57442;BME280;43284;47.042;15.498;2022-10-15T07:23:26;97105.25;;;10.49;100.00
57442;BME280;43284;47.042;15.498;2022-10-15T07:25:58;97105.00;;;10.54;100.00
57442;BME280;43284;47.042;15.498;2022-10-15T07:28:26;97099.66;;;10.57;100.00
57442;BME280;43284;47.042;15.498;2022-10-15T07:30:53;97098.66;;;10.59;100.00
57442;BME280;43284;47.042;15.498;2022-10-15T07:33:21;97112.31;;;10.64;100.00
57442;BME280;43284;47.042;15.498;2022-10-15T07:35:49;97115.81;;;10.65;100.00
57442;BME280;43284;47.042;15.498;2022-10-15T07:38:16;97117.31;;;10.69;100.00
57442;BME280;43284;47.042;15.498;2022-10-15T07:40:44;97130.25;;;10.72;100.00
57442;BME280;43284;47.042;15.498;2022-10-15T07:43:12;97127.25;;;10.80;100.00
57442;BME280;43284;47.042;15.498;2022-10-15T07:45:39;97125.34;;;10.83;100.00
57442;BME280;43284;47.042;15.498;2022-10-15T07:48:06;97128.72;;;10.85;100.00
57442;BME280;43284;47.042;15.498;2022-10-15T07:50:34;97132.94;;;10.88;100.00
57442;BME280;43284;47.042;15.498;2022-10-15T07:53:01;97125.94;;;10.88;100.00
57442;BME280;43284;47.042;15.498;2022-10-15T07:55:28;97117.31;;;10.86;100.00
57442;BME280;43284;47.042;15.498;2022-10-15T07:57:56;97124.25;;;10.87;100.00
57442;BME280;43284;47.042;15.498;2022-10-15T08:00:24;97114.56;;;10.89;100.00
57442;BME280;43284;47.042;15.498;2022-10-15T08:02:52;97112.63;;;10.93;100.00
57442;BME280;43284;47.042;15.498;2022-10-15T08:05:19;97109.03;;;10.96;100.00
57442;BME280;43284;47.042;15.498;2022-10-15T08:07:46;97104.47;;;10.99;100.00
57442;BME280;43284;47.042;15.498;2022-10-15T08:10:14;97114.88;;;11.01;100.00
57442;BME280;43284;47.042;15.498;2022-10-15T08:12:41;97112.94;;;11.04;100.00
57442;BME280;43284;47.042;15.498;2022-10-15T08:15:08;97111.84;;;11.08;100.00
57442;BME280;43284;47.042;15.498;2022-10-15T08:17:36;97120.47;;;11.10;100.00
57442;BME280;43284;47.042;15.498;2022-10-15T08:20:04;97125.63;;;11.12;100.00
57442;BME280;43284;47.042;15.498;2022-10-15T08:22:33;97122.88;;;11.15;100.00
57442;BME280;43284;47.042;15.498;2022-10-15T08:25:00;97121.84;;;11.18;100.00
57442;BME280;43284;47.042;15.498;2022-10-15T08:27:28;97122.63;;;11.20;100.00
57442;BME280;43284;47.042;15.498;2022-10-15T08:29:56;97126.00;;;11.22;100.00
57442;BME280;43284;47.042;15.498;2022-10-15T08:32:23;97119.91;;;11.21;100.00
57442;BME280;43284;47.042;15.498;2022-10-15T08:34:50;97124.31;;;11.21;100.00
57442;BME280;43284;47.042;15.498;2022-10-15T08:37:17;97123.28;;;11.23;100.00
57442;BME280;43284;47.042;15.498;2022-10-15T08:39:44;97118.75;;;11.27;100.00
57442;BME280;43284;47.042;15.498;2022-10-15T08:42:31;97116.84;;;11.30;100.00
57442;BME280;43284;47.042;15.498;2022-10-15T08:45:09;97107.97;;;11.33;100.00
57442;BME280;43284;47.042;15.498;2022-10-15T08:48:01;97113.88;;;11.37;100.00
57442;BME280;43284;47.042;15.498;2022-10-15T08:51:09;97121.47;;;11.41;100.00
57442;BME280;43284;47.042;15.498;2022-10-15T08:53:51;97123.25;;;11.41;100.00
57442;BME280;43284;47.042;15.498;2022-10-15T08:56:39;97135.25;;;11.45;100.00
57442;BME280;43284;47.042;15.498;2022-10-15T08:59:47;97137.88;;;11.45;100.00
57442;BME280;43284;47.042;15.498;2022-10-15T09:02:23;97131.31;;;11.53;100.00
57442;BME280;43284;47.042;15.498;2022-10-15T09:05:17;97125.06;;;11.56;100.00
57442;BME280;43284;47.042;15.498;2022-10-15T09:08:16;97123.91;;;11.62;100.00
57442;BME280;43284;47.042;15.498;2022-10-15T09:13:47;97127.03;;;11.68;100.00
57442;BME280;43284;47.042;15.498;2022-10-15T09:16:23;97125.84;;;11.74;100.00
57442;BME280;43284;47.042;15.498;2022-10-15T09:18:53;97113.44;;;11.78;100.00
57442;BME280;43284;47.042;15.498;2022-10-15T09:21:23;97121.81;;;11.84;100.00
57442;BME280;43284;47.042;15.498;2022-10-15T09:24:05;97126.84;;;11.89;100.00
57442;BME280;43284;47.042;15.498;2022-10-15T09:29:43;97131.06;;;11.91;100.00
57442;BME280;43284;47.042;15.498;2022-10-15T09:35:21;97138.25;;;12.04;100.00
57442;BME280;43284;47.042;15.498;2022-10-15T09:44:04;97135.47;;;12.23;100.00
57442;BME280;43284;47.042;15.498;2022-10-15T09:46:47;97134.13;;;12.31;100.00
57442;BME280;43284;47.042;15.498;2022-10-15T09:49:25;97126.81;;;12.36;100.00
57442;BME280;43284;47.042;15.498;2022-10-15T09:54:49;97128.75;;;12.49;100.00
57442;BME280;43284;47.042;15.498;2022-10-15T09:57:23;97124.94;;;12.54;100.00
57442;BME280;43284;47.042;15.498;2022-10-15T10:00:00;97131.34;;;12.65;100.00
57442;BME280;43284;47.042;15.498;2022-10-15T10:02:28;97128.28;;;12.72;99.38
57442;BME280;43284;47.042;15.498;2022-10-15T10:04:56;97130.72;;;12.75;98.14
57442;BME280;43284;47.042;15.498;2022-10-15T10:07:37;97130.88;;;12.88;98.13
57442;BME280;43284;47.042;15.498;2022-10-15T10:12:51;97136.06;;;13.04;96.08
57442;BME280;43284;47.042;15.498;2022-10-15T10:15:35;97125.28;;;13.09;93.56
57442;BME280;43284;47.042;15.498;2022-10-15T10:18:19;97120.44;;;13.17;92.93
57442;BME280;43284;47.042;15.498;2022-10-15T10:21:02;97118.28;;;13.24;91.45
57442;BME280;43284;47.042;15.498;2022-10-15T10:23:36;97123.97;;;13.32;90.88
57442;BME280;43284;47.042;15.498;2022-10-15T10:26:06;97135.69;;;13.41;91.42
57442;BME280;43284;47.042;15.498;2022-10-15T10:28:35;97126.56;;;13.46;91.34
57442;BME280;43284;47.042;15.498;2022-10-15T10:31:08;97124.69;;;13.48;90.87
57442;BME280;43284;47.042;15.498;2022-10-15T10:33:48;97126.00;;;13.55;90.97
57442;BME280;43284;47.042;15.498;2022-10-15T10:36:29;97121.34;;;13.60;91.17
57442;BME280;43284;47.042;15.498;2022-10-15T10:41:53;97120.84;;;13.68;89.48
57442;BME280;43284;47.042;15.498;2022-10-15T10:44:42;97121.97;;;13.78;90.19
57442;BME280;43284;47.042;15.498;2022-10-15T10:47:17;97118.13;;;13.84;89.45
57442;BME280;43284;47.042;15.498;2022-10-15T10:49:45;97112.59;;;13.89;89.09
57442;BME280;43284;47.042;15.498;2022-10-15T10:52:30;97118.94;;;13.99;90.55
57442;BME280;43284;47.042;15.498;2022-10-15T10:57:49;97121.84;;;14.09;88.99
57442;BME280;43284;47.042;15.498;2022-10-15T11:00:41;97115.03;;;14.19;90.07
57442;BME280;43284;47.042;15.498;2022-10-15T11:03:34;97111.84;;;14.28;89.26
57442;BME280;43284;47.042;15.498;2022-10-15T11:06:21;97103.44;;;14.36;88.47
57442;BME280;43284;47.042;15.498;2022-10-15T11:12:03;97100.94;;;14.47;87.95
57442;BME280;43284;47.042;15.498;2022-10-15T11:15:07;97108.38;;;14.55;87.37
57442;BME280;43284;47.042;15.498;2022-10-15T11:17:51;97106.50;;;14.57;85.69
57442;BME280;43284;47.042;15.498;2022-10-15T11:26:29;97102.44;;;14.66;85.47
57442;BME280;43284;47.042;15.498;2022-10-15T11:29:20;97093.25;;;14.71;85.11
57442;BME280;43284;47.042;15.498;2022-10-15T11:34:57;97088.75;;;14.73;83.39
57442;BME280;43284;47.042;15.498;2022-10-15T11:57:12;97076.34;;;14.75;83.27
57442;BME280;43284;47.042;15.498;2022-10-15T11:59:46;97068.56;;;14.74;83.75
57442;BME280;43284;47.042;15.498;2022-10-15T12:02:29;97069.19;;;14.77;84.37
57442;BME280;43284;47.042;15.498;2022-10-15T12:05:05;97071.72;;;14.79;84.52
57442;BME280;43284;47.042;15.498;2022-10-15T12:07:40;97079.41;;;14.82;84.34
57442;BME280;43284;47.042;15.498;2022-10-15T12:10:31;97086.47;;;14.81;83.82
57442;BME280;43284;47.042;15.498;2022-10-15T12:16:10;97091.69;;;14.69;82.19
57442;BME280;43284;47.042;15.498;2022-10-15T12:18:51;97086.72;;;14.64;81.50
57442;BME280;43284;47.042;15.498;2022-10-15T12:21:38;97087.06;;;14.72;82.72
57442;BME280;43284;47.042;15.498;2022-10-15T12:27:21;97085.09;;;14.76;83.40
57442;BME280;43284;47.042;15.498;2022-10-15T12:30:10;97072.78;;;14.76;81.41
57442;BME280;43284;47.042;15.498;2022-10-15T12:32:43;97079.72;;;14.77;82.74
57442;BME280;43284;47.042;15.498;2022-10-15T12:37:45;97085.09;;;14.76;83.06
57442;BME280;43284;47.042;15.498;2022-10-15T12:43:13;97087.28;;;14.82;82.54
57442;BME280;43284;47.042;15.498;2022-10-15T12:45:49;97081.19;;;14.81;82.99
57442;BME280;43284;47.042;15.498;2022-10-15T12:48:31;97081.84;;;14.85;82.95
57442;BME280;43284;47.042;15.498;2022-10-15T12:53:52;97071.00;;;14.90;82.46
57442;BME280;43284;47.042;15.498;2022-10-15T12:56:38;97072.47;;;14.81;82.50
57442;BME280;43284;47.042;15.498;2022-10-15T12:59:30;97069.53;;;14.86;83.30
57442;BME280;43284;47.042;15.498;2022-10-15T13:02:41;97072.88;;;14.88;83.23
57442;BME280;43284;47.042;15.498;2022-10-15T13:05:26;97073.41;;;14.93;83.23
57442;BME280;43284;47.042;15.498;2022-10-15T13:07:55;97074.06;;;14.96;82.99
57442;BME280;43284;47.042;15.498;2022-10-15T13:10:29;97071.44;;;14.96;81.54
57442;BME280;43284;47.042;15.498;2022-10-15T13:13:03;97070.59;;;14.96;81.28
57442;BME280;43284;47.042;15.498;2022-10-15T13:15:31;97074.81;;;14.98;80.81
57442;BME280;43284;47.042;15.498;2022-10-15T13:18:07;97071.84;;;15.03;81.79
57442;BME280;43284;47.042;15.498;2022-10-15T13:20:44;97081.41;;;15.04;80.71
57442;BME280;43284;47.042;15.498;2022-10-15T13:23:22;97079.44;;;15.08;80.77
57442;BME280;43284;47.042;15.498;2022-10-15T13:25:51;97077.63;;;15.08;79.99
57442;BME280;43284;47.042;15.498;2022-10-15T13:28:36;97077.63;;;15.08;80.36
57442;BME280;43284;47.042;15.498;2022-10-15T13:31:31;97083.78;;;15.09;79.63
57442;BME280;43284;47.042;15.498;2022-10-15T13:36:38;97092.59;;;15.08;78.49
57442;BME280;43284;47.042;15.498;2022-10-15T13:39:07;97090.81;;;15.08;77.13
57442;BME280;43284;47.042;15.498;2022-10-15T13:41:47;97096.94;;;15.09;78.01
57442;BME280;43284;47.042;15.498;2022-10-15T13:44:23;97096.94;;;15.09;78.53
57442;BME280;43284;47.042;15.498;2022-10-15T13:46:51;97090.81;;;15.08;78.26
57442;BME280;43284;47.042;15.498;2022-10-15T13:49:19;97095.56;;;15.16;79.68
57442;BME280;43284;47.042;15.498;2022-10-15T13:51:48;97088.28;;;15.19;78.79
57442;BME280;43284;47.042;15.498;2022-10-15T13:54:23;97088.69;;;15.26;79.22
57442;BME280;43284;47.042;15.498;2022-10-15T13:56:57;97085.03;;;15.29;78.31
57442;BME280;43284;47.042;15.498;2022-10-15T13:59:25;97084.81;;;15.32;77.42
57442;BME280;43284;47.042;15.498;2022-10-15T14:01:59;97087.53;;;15.30;77.51
57442;BME280;43284;47.042;15.498;2022-10-15T14:04:30;97092.50;;;15.35;76.94
57442;BME280;43284;47.042;15.498;2022-10-15T14:06:59;97094.28;;;15.34;77.86
57442;BME280;43284;47.042;15.498;2022-10-15T14:09:28;97097.03;;;15.33;77.70
57442;BME280;43284;47.042;15.498;2022-10-15T14:11:58;97094.50;;;15.31;78.80
57442;BME280;43284;47.042;15.498;2022-10-15T14:14:44;97097.88;;;15.33;77.64
57442;BME280;43284;47.042;15.498;2022-10-15T14:17:25;97095.84;;;15.37;77.83
57442;BME280;43284;47.042;15.498;2022-10-15T14:19:57;97090.41;;;15.40;78.14
57442;BME280;43284;47.042;15.498;2022-10-15T14:22:27;97091.88;;;15.44;76.76
57442;BME280;43284;47.042;15.498;2022-10-15T14:24:55;97091.88;;;15.44;76.65
57442;BME280;43284;47.042;15.498;2022-10-15T14:27:25;97092.06;;;15.41;76.97
57442;BME280;43284;47.042;15.498;2022-10-15T14:29:56;97080.19;;;15.35;76.65
57442;BME280;43284;47.042;15.498;2022-10-15T14:32:47;97080.06;;;15.37;77.23
57442;BME280;43284;47.042;15.498;2022-10-15T14:38:01;97082.81;;;15.35;78.83
57442;BME280;43284;47.042;15.498;2022-10-15T14:40:29;97077.13;;;15.29;78.25
57442;BME280;43284;47.042;15.498;2022-10-15T14:43:16;97072.06;;;15.25;78.61
57442;BME280;43284;47.042;15.498;2022-10-15T14:45:56;97079.22;;;15.23;79.55
57442;BME280;43284;47.042;15.498;2022-10-15T14:48:36;97091.56;;;15.23;78.48
57442;BME280;43284;47.042;15.498;2022-10-15T14:51:06;97090.72;;;15.22;79.42
57442;BME280;43284;47.042;15.498;2022-10-15T14:53:37;97081.34;;;15.18;80.20
57442;BME280;43284;47.042;15.498;2022-10-15T14:56:16;97074.69;;;15.13;80.60
57442;BME280;43284;47.042;15.498;2022-10-15T14:58:53;97072.19;;;15.11;81.74